createdAt,value
2017-08-25T00:01:48.476Z,16.38
2017-08-25T00:04:21.284Z,16.28
2017-08-25T00:06:52.817Z,16.30
2017-08-25T00:09:22.901Z,16.27
2017-08-25T00:11:52.625Z,16.28
2017-08-25T00:14:21.968Z,16.19
2017-08-25T00:16:51.504Z,16.22
2017-08-25T00:19:20.811Z,16.23
2017-08-25T00:21:50.183Z,16.23
2017-08-25T00:24:19.580Z,16.20
2017-08-25T00:26:48.968Z,16.23
2017-08-25T00:29:18.299Z,16.12
2017-08-25T00:31:47.721Z,15.92
2017-08-25T00:34:17.097Z,16.09
2017-08-25T00:36:46.561Z,16.23
2017-08-25T00:39:16.785Z,16.16
2017-08-25T00:41:46.171Z,16.18
2017-08-25T00:44:15.547Z,16.07
2017-08-25T00:46:44.945Z,16.18
2017-08-25T00:49:14.270Z,16.19
2017-08-25T00:51:43.678Z,16.18
2017-08-25T00:54:13.017Z,16.20
2017-08-25T00:56:42.476Z,16.14
2017-08-25T00:59:11.893Z,16.13
2017-08-25T01:01:41.289Z,16.16
2017-08-25T01:04:10.722Z,16.17
2017-08-25T01:06:40.159Z,16.14
2017-08-25T01:09:09.519Z,16.20
2017-08-25T01:11:40.715Z,16.20
2017-08-25T01:14:10.074Z,16.02
2017-08-25T01:16:39.724Z,15.89
2017-08-25T01:19:09.118Z,15.93
2017-08-25T01:21:38.666Z,15.94
2017-08-25T01:24:08.172Z,16.01
2017-08-25T01:26:37.983Z,16.17
2017-08-25T01:29:07.337Z,16.12
2017-08-25T01:31:36.748Z,16.14
2017-08-25T01:34:06.101Z,16.10
2017-08-25T01:36:35.495Z,16.11
2017-08-25T01:39:05.394Z,16.12
2017-08-25T01:41:34.841Z,16.13
2017-08-25T01:44:04.686Z,16.10
2017-08-25T01:46:34.262Z,16.13
2017-08-25T01:49:03.618Z,16.12
2017-08-25T01:51:33.100Z,16.11
2017-08-25T01:54:02.533Z,16.18
2017-08-25T01:56:31.973Z,16.18
2017-08-25T01:59:01.308Z,16.05
2017-08-25T02:01:30.700Z,15.92
2017-08-25T02:04:00.063Z,16.11
2017-08-25T02:06:29.513Z,16.04
2017-08-25T02:08:58.888Z,16.02
2017-08-25T02:11:28.397Z,15.95
2017-08-25T02:13:57.784Z,15.80
2017-08-25T02:16:27.151Z,15.70
2017-08-25T02:18:56.493Z,15.76
2017-08-25T02:21:30.029Z,15.91
2017-08-25T02:23:59.354Z,15.66
2017-08-25T02:26:28.869Z,15.84
2017-08-25T02:28:58.261Z,15.67
2017-08-25T02:31:27.654Z,15.82
2017-08-25T02:33:57.053Z,15.89
2017-08-25T02:36:26.424Z,15.83
2017-08-25T02:38:55.755Z,15.75
2017-08-25T02:41:25.152Z,15.77
2017-08-25T02:43:54.597Z,15.76
2017-08-25T02:46:23.969Z,15.66
2017-08-25T02:48:53.311Z,15.64
2017-08-25T02:51:22.751Z,15.71
2017-08-25T02:53:52.132Z,15.61
2017-08-25T02:56:21.585Z,15.46
2017-08-25T02:58:51.026Z,15.52
2017-08-25T03:01:20.475Z,15.67
2017-08-25T03:03:49.814Z,15.67
2017-08-25T03:06:19.238Z,15.68
2017-08-25T03:08:48.653Z,15.56
2017-08-25T03:11:18.060Z,15.60
2017-08-25T03:13:47.452Z,15.64
2017-08-25T03:16:19.700Z,15.58
2017-08-25T03:18:49.080Z,15.52
2017-08-25T03:21:18.523Z,15.49
2017-08-25T03:23:47.877Z,15.41
2017-08-25T03:26:18.242Z,15.47
2017-08-25T03:28:47.852Z,15.61
2017-08-25T03:31:17.270Z,15.61
2017-08-25T03:33:46.664Z,15.58
2017-08-25T03:36:16.397Z,15.61
2017-08-25T03:38:45.743Z,15.57
2017-08-25T03:41:15.208Z,15.62
2017-08-25T03:43:44.661Z,15.55
2017-08-25T03:46:14.015Z,15.55
2017-08-25T03:48:43.401Z,15.56
2017-08-25T03:51:12.749Z,15.53
2017-08-25T03:53:42.081Z,15.53
2017-08-25T03:56:12.131Z,15.44
2017-08-25T03:58:41.558Z,15.45
2017-08-25T04:01:10.960Z,15.67
2017-08-25T04:03:40.389Z,15.66
2017-08-25T04:06:11.693Z,15.74
2017-08-25T04:08:41.839Z,15.75
2017-08-25T04:11:11.264Z,15.67
2017-08-25T04:13:40.529Z,15.77
2017-08-25T04:16:09.896Z,15.85
2017-08-25T04:18:39.659Z,15.76
2017-08-25T04:21:09.133Z,15.76
2017-08-25T04:23:38.466Z,15.74
2017-08-25T04:26:07.878Z,15.75
2017-08-25T04:28:37.252Z,15.81
2017-08-25T04:31:06.740Z,15.90
2017-08-25T04:33:36.153Z,15.91
2017-08-25T04:36:05.572Z,15.91
2017-08-25T04:38:34.896Z,15.93
2017-08-25T04:41:04.327Z,15.92
2017-08-25T04:43:33.697Z,15.89
2017-08-25T04:46:03.221Z,15.94
2017-08-25T04:48:32.671Z,15.86
2017-08-25T04:51:02.209Z,15.98
2017-08-25T04:53:31.603Z,16.08
2017-08-25T04:56:01.524Z,16.17
2017-08-25T04:58:31.056Z,16.18
2017-08-25T05:01:04.699Z,16.09
2017-08-25T05:03:34.817Z,16.03
2017-08-25T05:06:04.401Z,16.11
2017-08-25T05:08:33.869Z,16.12
2017-08-25T05:11:03.336Z,16.16
2017-08-25T05:13:32.770Z,16.17
2017-08-25T05:16:02.179Z,16.15
2017-08-25T05:18:31.520Z,16.17
2017-08-25T05:21:00.942Z,16.22
2017-08-25T05:24:10.972Z,16.30
2017-08-25T05:26:55.869Z,16.40
2017-08-25T05:29:28.208Z,16.38
2017-08-25T05:31:59.173Z,16.40
2017-08-25T05:34:29.005Z,16.38
2017-08-25T05:36:58.696Z,16.49
2017-08-25T05:39:28.066Z,16.47
2017-08-25T05:41:57.488Z,16.51
2017-08-25T05:44:26.872Z,16.46
2017-08-25T05:46:57.246Z,16.60
2017-08-25T05:49:26.620Z,16.78
2017-08-25T05:51:55.977Z,17.00
2017-08-25T05:54:25.303Z,17.06
2017-08-25T05:56:54.749Z,17.09
2017-08-25T05:59:24.142Z,17.19
2017-08-25T06:01:54.000Z,17.25
2017-08-25T06:04:23.314Z,17.27
2017-08-25T06:06:52.672Z,17.60
2017-08-25T06:09:22.054Z,17.66
2017-08-25T06:11:51.556Z,17.77
2017-08-25T06:14:21.129Z,18.02
2017-08-25T06:16:50.611Z,18.27
2017-08-25T06:19:20.244Z,18.25
2017-08-25T06:21:50.056Z,18.12
2017-08-25T06:24:19.839Z,18.09
2017-08-25T06:26:51.472Z,18.41
2017-08-25T06:29:21.068Z,18.41
2017-08-25T06:31:50.476Z,18.49
2017-08-25T06:34:20.072Z,18.59
2017-08-25T06:36:51.062Z,18.51
2017-08-25T06:39:20.518Z,18.35
2017-08-25T06:41:55.985Z,18.39
2017-08-25T06:44:26.955Z,18.29
2017-08-25T06:46:56.404Z,18.26
2017-08-25T06:49:25.705Z,18.26
2017-08-25T06:51:55.782Z,18.22
2017-08-25T06:54:25.370Z,18.51
2017-08-25T06:56:55.328Z,18.47
2017-08-25T06:59:26.517Z,18.59
2017-08-25T07:01:56.034Z,18.87
2017-08-25T07:04:25.580Z,18.90
2017-08-25T07:06:55.041Z,18.91
2017-08-25T07:09:24.412Z,18.72
2017-08-25T07:11:53.788Z,18.77
2017-08-25T07:14:23.159Z,18.63
2017-08-25T07:16:52.562Z,18.78
2017-08-25T07:19:21.896Z,18.90
2017-08-25T07:21:51.313Z,18.94
2017-08-25T07:24:20.639Z,18.81
2017-08-25T07:26:50.041Z,18.92
2017-08-25T07:29:19.405Z,18.86
2017-08-25T07:34:45.145Z,18.98
2017-08-25T07:37:14.602Z,19.00
2017-08-25T07:39:43.939Z,19.05
2017-08-25T07:42:13.334Z,19.12
2017-08-25T07:44:42.703Z,19.21
2017-08-25T07:47:12.170Z,19.23
2017-08-25T07:49:41.489Z,19.43
2017-08-25T07:52:10.891Z,19.36
2017-08-25T07:54:40.206Z,19.40
2017-08-25T07:57:09.608Z,19.58
2017-08-25T07:59:39.235Z,19.69
2017-08-25T08:02:08.840Z,19.78
2017-08-25T08:04:38.188Z,19.91
2017-08-25T08:07:07.597Z,19.89
2017-08-25T08:09:36.944Z,19.86
2017-08-25T08:12:06.333Z,19.91
2017-08-25T08:14:35.864Z,20.08
2017-08-25T08:17:05.205Z,20.16
2017-08-25T08:19:34.525Z,20.34
2017-08-25T08:22:03.892Z,20.13
2017-08-25T08:24:33.198Z,20.27
2017-08-25T08:27:02.647Z,20.25
2017-08-25T08:29:31.997Z,20.17
2017-08-25T08:32:01.391Z,20.23
2017-08-25T08:34:30.787Z,20.42
2017-08-25T08:37:01.157Z,20.57
2017-08-25T08:39:30.504Z,20.49
2017-08-25T08:41:59.916Z,20.48
2017-08-25T08:44:36.084Z,20.79
2017-08-25T08:47:05.451Z,20.59
2017-08-25T08:49:34.759Z,20.55
2017-08-25T08:52:04.169Z,20.66
2017-08-25T08:54:33.451Z,20.65
2017-08-25T08:57:02.865Z,20.76
2017-08-25T08:59:32.215Z,20.96
2017-08-25T09:02:04.597Z,21.09
2017-08-25T09:04:33.961Z,20.85
2017-08-25T09:07:03.356Z,21.10
2017-08-25T09:09:32.715Z,21.22
2017-08-25T09:12:02.130Z,20.96
2017-08-25T09:14:31.488Z,21.04
2017-08-25T09:17:01.035Z,21.12
2017-08-25T09:19:30.325Z,20.78
2017-08-25T09:21:59.661Z,21.22
2017-08-25T09:24:29.378Z,21.42
2017-08-25T09:26:58.829Z,21.85
2017-08-25T09:29:28.187Z,21.35
2017-08-25T09:31:57.627Z,21.09
2017-08-25T09:34:26.973Z,20.97
2017-08-25T09:36:56.365Z,21.00
2017-08-25T09:39:25.712Z,21.35
2017-08-25T09:41:55.057Z,21.11
2017-08-25T09:44:24.441Z,21.19
2017-08-25T09:46:54.318Z,21.07
2017-08-25T09:49:23.627Z,21.96
2017-08-25T09:51:53.099Z,22.09
2017-08-25T09:54:22.497Z,21.75
2017-08-25T09:56:51.882Z,21.35
2017-08-25T09:59:21.239Z,21.75
2017-08-25T10:01:50.604Z,21.63
2017-08-25T10:04:19.973Z,22.09
2017-08-25T10:06:49.363Z,21.58
2017-08-25T10:09:18.729Z,21.09
2017-08-25T10:11:48.157Z,23.01
2017-08-25T10:14:17.523Z,24.59
2017-08-25T10:16:46.884Z,24.34
2017-08-25T10:19:16.309Z,25.73
2017-08-25T10:21:45.725Z,25.88
2017-08-25T10:24:15.069Z,27.35
2017-08-25T10:26:44.469Z,26.74
2017-08-25T10:29:13.844Z,26.63
2017-08-25T10:31:43.213Z,26.24
2017-08-25T10:34:21.460Z,23.98
2017-08-25T10:41:06.228Z,22.92
2017-08-25T10:45:44.953Z,22.69
2017-08-25T10:48:14.283Z,22.34
2017-08-25T10:50:43.599Z,22.80
2017-08-25T10:53:12.916Z,23.89
2017-08-25T10:55:42.739Z,24.50
2017-08-25T10:58:12.135Z,24.78
2017-08-25T11:00:41.484Z,24.49
2017-08-25T11:03:10.858Z,23.36
2017-08-25T11:05:40.477Z,23.40
2017-08-25T11:08:10.155Z,23.39
2017-08-25T11:10:39.508Z,22.83
2017-08-25T11:13:08.864Z,22.90
2017-08-25T11:15:39.154Z,22.75
2017-08-25T11:18:08.527Z,22.66
2017-08-25T11:20:37.883Z,22.64
2017-08-25T11:23:07.222Z,22.59
2017-08-25T11:25:36.620Z,22.43
2017-08-25T11:28:05.900Z,21.97
2017-08-25T11:30:35.415Z,22.09
2017-08-25T11:33:04.740Z,21.74
2017-08-25T11:35:34.085Z,21.68
2017-08-25T11:38:03.352Z,21.94
2017-08-25T11:40:32.725Z,21.96
2017-08-25T11:43:02.109Z,21.82
2017-08-25T11:45:31.533Z,22.08
2017-08-25T11:48:00.831Z,22.02
2017-08-25T11:50:36.975Z,21.92
2017-08-25T11:53:07.185Z,21.83
2017-08-25T11:55:36.551Z,21.87
2017-08-25T11:58:05.808Z,22.09
2017-08-25T12:00:35.125Z,22.07
2017-08-25T12:03:04.424Z,21.91
2017-08-25T12:05:33.866Z,21.96
2017-08-25T12:08:03.199Z,21.96
2017-08-25T12:10:32.556Z,22.01
2017-08-25T12:13:01.944Z,21.91
2017-08-25T12:15:31.268Z,21.95
2017-08-25T12:18:00.591Z,21.81
2017-08-25T12:20:29.923Z,21.84
2017-08-25T12:22:59.244Z,21.89
2017-08-25T12:25:28.792Z,21.90
2017-08-25T12:27:58.141Z,21.98
2017-08-25T12:30:27.472Z,21.80
2017-08-25T12:32:56.825Z,21.79
2017-08-25T12:35:27.867Z,21.94
2017-08-25T12:37:57.229Z,21.94
2017-08-25T12:40:26.621Z,21.92
2017-08-25T12:42:55.930Z,21.98
2017-08-25T12:45:25.389Z,22.02
2017-08-25T12:47:54.817Z,21.90
2017-08-25T12:50:24.216Z,21.78
2017-08-25T12:52:53.600Z,21.84
2017-08-25T12:55:22.910Z,21.91
2017-08-25T12:57:52.196Z,21.92
2017-08-25T13:00:21.556Z,21.82
2017-08-25T13:02:50.877Z,21.65
2017-08-25T13:05:20.219Z,21.56
2017-08-25T13:07:49.495Z,21.60
2017-08-25T13:10:19.076Z,21.76
2017-08-25T13:12:48.372Z,21.78
2017-08-25T13:15:17.783Z,21.80
2017-08-25T13:17:47.128Z,21.87
2017-08-25T13:20:16.479Z,21.84
2017-08-25T13:22:45.785Z,21.84
2017-08-25T13:25:15.136Z,21.95
2017-08-25T13:27:44.507Z,22.13
2017-08-25T13:30:16.576Z,22.13
2017-08-25T13:32:46.173Z,22.08
2017-08-25T13:35:16.500Z,21.98
2017-08-25T13:37:47.443Z,21.91
2017-08-25T13:40:17.668Z,21.72
2017-08-25T13:42:47.107Z,21.87
2017-08-25T13:45:16.928Z,21.90
2017-08-25T13:47:51.344Z,21.92
2017-08-25T13:50:34.136Z,21.92
2017-08-25T13:53:03.765Z,21.87
2017-08-25T13:55:33.172Z,21.92
2017-08-25T13:58:02.582Z,22.00
2017-08-25T14:00:34.570Z,22.08
2017-08-25T14:03:03.910Z,22.07
2017-08-25T14:05:33.418Z,22.17
2017-08-25T14:08:02.887Z,22.22
2017-08-25T14:10:32.498Z,22.23
2017-08-25T14:13:01.880Z,22.27
2017-08-25T14:15:31.252Z,22.23
2017-08-25T14:18:00.556Z,22.15
2017-08-25T14:20:29.896Z,22.23
2017-08-25T14:22:59.275Z,22.22
2017-08-25T14:25:29.423Z,22.30
2017-08-25T14:27:58.797Z,22.29
2017-08-25T14:30:28.225Z,22.19
2017-08-25T14:32:57.665Z,22.23
2017-08-25T14:35:27.049Z,22.43
2017-08-25T14:38:03.498Z,22.34
2017-08-25T14:40:33.327Z,22.39
2017-08-25T14:43:03.949Z,22.38
2017-08-25T14:45:33.478Z,22.46
2017-08-25T14:48:02.841Z,22.50
2017-08-25T14:50:32.288Z,22.35
2017-08-25T14:53:01.664Z,22.39
2017-08-25T14:55:31.043Z,22.42
2017-08-25T14:58:00.371Z,22.20
2017-08-25T15:00:29.721Z,22.28
2017-08-25T15:02:59.031Z,22.25
2017-08-25T15:05:28.432Z,22.16
2017-08-25T15:07:57.732Z,22.21
2017-08-25T15:10:27.135Z,22.25
2017-08-25T15:12:56.495Z,22.22
2017-08-25T15:15:25.869Z,22.25
2017-08-25T15:17:55.900Z,22.20
2017-08-25T15:20:25.332Z,22.22
2017-08-25T15:22:54.645Z,22.14
2017-08-25T15:25:23.960Z,22.08
2017-08-25T15:27:53.294Z,22.22
2017-08-25T15:30:23.094Z,22.20
2017-08-25T15:32:52.412Z,22.14
2017-08-25T15:35:21.837Z,22.14
2017-08-25T15:37:51.219Z,22.10
2017-08-25T15:40:20.652Z,22.12
2017-08-25T15:42:49.967Z,22.04
2017-08-25T15:45:19.301Z,22.07
2017-08-25T15:47:48.703Z,21.98
2017-08-25T15:50:18.090Z,22.03
2017-08-25T15:52:53.955Z,22.02
2017-08-25T15:55:23.396Z,22.01
2017-08-25T15:57:52.884Z,21.98
2017-08-25T16:00:22.304Z,22.02
2017-08-25T16:02:51.636Z,21.88
2017-08-25T16:05:21.080Z,21.89
2017-08-25T16:07:50.377Z,21.90
2017-08-25T16:10:19.713Z,21.84
2017-08-25T16:12:49.089Z,21.85
2017-08-25T16:15:18.427Z,21.81
2017-08-25T16:17:47.756Z,21.80
2017-08-25T16:20:17.079Z,21.77
2017-08-25T16:22:46.381Z,21.79
2017-08-25T16:25:16.111Z,21.73
2017-08-25T16:27:45.613Z,21.70
2017-08-25T16:30:14.971Z,21.62
2017-08-25T16:32:44.308Z,21.61
2017-08-25T16:35:13.640Z,21.64
2017-08-25T16:37:42.956Z,21.59
2017-08-25T16:40:12.298Z,21.57
2017-08-25T16:42:41.718Z,21.54
2017-08-25T16:45:11.087Z,21.54
2017-08-25T16:47:40.414Z,21.51
2017-08-25T16:50:09.792Z,21.43
2017-08-25T16:52:39.113Z,21.47
2017-08-25T16:55:08.487Z,21.41
2017-08-25T16:57:37.781Z,21.28
2017-08-25T17:00:07.088Z,21.31
2017-08-25T17:02:36.448Z,21.19
2017-08-25T17:05:05.837Z,21.15
2017-08-25T17:07:35.160Z,21.12
2017-08-25T17:10:04.528Z,21.08
2017-08-25T17:12:33.922Z,21.09
2017-08-25T17:15:03.303Z,21.10
2017-08-25T17:17:32.668Z,20.98
2017-08-25T17:20:02.273Z,20.89
2017-08-25T17:22:31.752Z,20.97
2017-08-25T17:25:01.048Z,20.90
2017-08-25T17:27:30.416Z,20.87
2017-08-25T17:29:59.718Z,20.85
2017-08-25T17:32:29.163Z,20.68
2017-08-25T17:34:58.447Z,20.54
2017-08-25T17:37:27.887Z,20.42
2017-08-25T17:39:57.650Z,20.37
2017-08-25T17:42:27.238Z,20.27
2017-08-25T17:44:56.612Z,20.42
2017-08-25T17:47:26.138Z,20.10
2017-08-25T17:49:55.641Z,20.17
2017-08-25T17:52:25.444Z,20.06
2017-08-25T17:54:55.818Z,20.15
2017-08-25T17:57:25.362Z,20.14
2017-08-25T17:59:54.726Z,20.10
2017-08-25T18:02:24.105Z,20.08
2017-08-25T18:04:53.404Z,19.83
2017-08-25T18:07:22.742Z,19.98
2017-08-25T18:09:52.106Z,19.80
2017-08-25T18:12:21.555Z,19.84
2017-08-25T18:14:50.872Z,19.74
2017-08-25T18:17:20.197Z,19.70
2017-08-25T18:19:49.502Z,19.54
2017-08-25T18:22:18.903Z,19.40
2017-08-25T18:24:48.217Z,19.57
2017-08-25T18:27:17.576Z,19.59
2017-08-25T18:29:47.353Z,19.56
2017-08-25T18:32:17.057Z,19.44
2017-08-25T18:34:46.468Z,19.44
2017-08-25T19:50:12.604Z,18.07
2017-08-25T19:52:41.943Z,18.09
2017-08-25T19:55:11.377Z,17.95
2017-08-25T19:57:51.663Z,18.02
2017-08-25T20:00:22.984Z,17.98
2017-08-25T20:02:52.486Z,17.75
2017-08-25T20:05:23.052Z,17.63
2017-08-25T20:07:52.793Z,17.73
2017-08-25T20:10:22.329Z,17.86
2017-08-25T20:12:52.837Z,17.87
2017-08-25T20:15:22.318Z,17.87
2017-08-25T20:17:51.666Z,17.81
2017-08-25T20:20:21.061Z,17.79
2017-08-25T20:22:50.406Z,17.83
2017-08-25T20:25:19.738Z,17.68
2017-08-25T20:27:49.033Z,17.71
2017-08-25T20:30:18.425Z,17.71
2017-08-25T20:32:49.220Z,17.70
2017-08-25T20:35:18.772Z,17.69
2017-08-25T20:37:48.130Z,17.70
2017-08-25T20:40:17.643Z,17.58
2017-08-25T20:42:47.050Z,17.43
2017-08-25T20:45:16.480Z,17.51
2017-08-25T20:47:45.905Z,17.48
2017-08-25T20:50:15.299Z,17.52
2017-08-25T20:52:44.721Z,17.56
2017-08-25T20:55:14.044Z,17.41
2017-08-25T20:57:43.393Z,17.52
2017-08-25T21:00:12.704Z,17.49
2017-08-25T21:02:42.128Z,17.48
2017-08-25T21:05:11.546Z,17.44
2017-08-25T21:07:41.240Z,17.44
2017-08-25T21:10:10.667Z,17.44
2017-08-25T21:12:40.130Z,17.37
2017-08-25T21:15:09.493Z,17.30
2017-08-25T21:17:38.900Z,17.34
2017-08-25T21:20:08.287Z,17.35
2017-08-25T21:22:37.616Z,17.32
2017-08-25T21:25:07.638Z,17.18
2017-08-25T21:27:36.984Z,17.07
2017-08-25T21:30:06.410Z,17.15
2017-08-25T21:32:35.736Z,17.27
2017-08-25T21:35:05.193Z,17.28
2017-08-25T21:37:34.509Z,17.22
2017-08-25T21:40:03.843Z,17.19
2017-08-25T21:42:33.280Z,17.20
2017-08-25T21:45:02.677Z,17.19
2017-08-25T21:47:32.043Z,16.93
2017-08-25T21:50:01.382Z,17.03
2017-08-25T21:52:30.757Z,17.08
2017-08-25T21:55:00.094Z,16.93
2017-08-25T21:57:29.559Z,16.81
2017-08-25T21:59:58.904Z,16.91
2017-08-25T22:02:28.244Z,16.89
2017-08-25T22:04:57.597Z,17.02
2017-08-25T22:07:26.973Z,16.90
2017-08-25T22:09:56.303Z,16.84
2017-08-25T22:12:25.636Z,16.78
2017-08-25T22:14:54.983Z,16.79
2017-08-25T22:17:24.411Z,16.83
2017-08-25T22:19:53.805Z,16.63
2017-08-25T22:22:23.223Z,16.55
2017-08-25T22:24:52.625Z,16.61
2017-08-25T22:27:22.553Z,16.54
2017-08-25T22:29:51.901Z,16.75
2017-08-25T22:32:21.273Z,16.89
2017-08-25T22:34:50.688Z,16.83
2017-08-25T22:37:20.185Z,16.76
2017-08-25T22:39:49.593Z,16.63
2017-08-25T22:42:19.036Z,16.64
2017-08-25T22:44:48.409Z,16.47
2017-08-25T22:47:17.845Z,16.41
2017-08-25T22:49:47.254Z,16.56
2017-08-25T22:52:16.668Z,16.46
2017-08-25T22:54:46.056Z,16.59
2017-08-25T22:57:17.634Z,16.62
2017-08-25T22:59:47.946Z,16.56
2017-08-25T23:02:18.803Z,16.35
2017-08-25T23:04:48.648Z,16.36
2017-08-25T23:07:19.640Z,16.24
2017-08-25T23:09:49.112Z,16.46
2017-08-25T23:12:18.704Z,16.43
2017-08-25T23:14:48.305Z,16.30
2017-08-25T23:17:19.225Z,16.39
2017-08-25T23:19:48.815Z,16.39
2017-08-25T23:22:18.858Z,16.42
2017-08-25T23:24:49.780Z,16.27
2017-08-25T23:27:19.546Z,16.26
2017-08-25T23:29:49.028Z,16.31
2017-08-25T23:32:18.636Z,16.31
2017-08-25T23:34:48.205Z,16.30
2017-08-25T23:37:17.736Z,16.02
2017-08-25T23:39:48.952Z,15.77
2017-08-25T23:42:18.632Z,15.87
2017-08-25T23:44:48.197Z,16.10
2017-08-25T23:47:18.392Z,16.01
2017-08-25T23:49:48.223Z,16.02
2017-08-25T23:52:17.804Z,16.10
2017-08-25T23:54:47.273Z,16.14
2017-08-25T23:57:16.778Z,16.04
2017-08-25T23:59:46.782Z,16.07
